Time;durP1;ratioP1;P1;durP2;ratioP2;P2;SDS_P1;SDS_P2;PMS_P1;PMS_P2;Temp;Humidity;BMP_temperature;BMP_pressure;BME280_temperature;BME280_humidity;BME280_pressure;Samples;Min_cycle;Max_cycle;Signal;HPM_P1;HPM_P2
2022/06/11 00:01:20;;;;;;;79.30;72.32;;;;;;;19.58;100.00;100545.69;5014500;28;20060;-85
2022/06/11 00:04:02;;;;;;;77.60;70.47;;;;;;;19.34;100.00;100534.66;5014511;28;20128;-85
2022/06/11 00:06:41;;;;;;;84.22;76.40;;;;;;;19.28;100.00;100533.03;5014321;28;20485;-85
2022/06/11 00:09:13;;;;;;;87.22;79.10;;;;;;;19.42;100.00;100525.19;5014202;28;20064;-85
2022/06/11 00:11:55;;;;;;;82.10;74.40;;;;;;;19.49;100.00;100525.75;5014204;28;20402;-85
2022/06/11 00:14:27;;;;;;;86.07;77.80;;;;;;;19.44;100.00;100526.56;5013909;28;20041;-84
2022/06/11 00:17:02;;;;;;;88.77;80.83;;;;;;;19.43;100.00;100537.63;5014103;28;20055;-85
2022/06/11 00:19:42;;;;;;;89.18;81.03;;;;;;;19.10;100.00;100538.94;5014004;28;20072;-85
2022/06/11 00:22:13;;;;;;;79.05;71.70;;;;;;;19.40;100.00;100538.94;5013961;28;20061;-84
2022/06/11 00:24:44;;;;;;;87.38;79.18;;;;;;;19.52;100.00;100530.59;5013834;28;20050;-85
2022/06/11 00:27:12;;;;;;;83.95;76.45;;;;;;;19.49;100.00;100530.34;5014023;28;20061;-85
2022/06/11 00:29:41;;;;;;;81.05;73.65;;;;;;;19.54;100.00;100539.22;5013790;28;20063;-85
2022/06/11 00:32:12;;;;;;;85.38;77.32;;;;;;;19.38;100.00;100538.41;5013493;28;20085;-85
2022/06/11 00:34:47;;;;;;;85.93;77.97;;;;;;;19.48;100.00;100547.56;5013818;28;20046;-85
2022/06/11 00:37:20;;;;;;;84.25;77.05;;;;;;;19.22;100.00;100531.41;5010120;28;20371;-84
2022/06/11 00:39:48;;;;;;;83.10;75.32;;;;;;;19.11;100.00;100537.84;5013711;28;20050;-85
2022/06/11 00:42:25;;;;;;;86.97;78.80;;;;;;;19.34;100.00;100534.66;5013951;28;20061;-86
2022/06/11 00:45:17;;;;;;;85.93;77.93;;;;;;;18.99;100.00;100530.81;5013543;28;20056;-85
2022/06/11 00:47:51;;;;;;;88.35;80.35;;;;;;;19.11;100.00;100540.53;5014076;28;20409;-85
2022/06/11 00:50:26;;;;;;;86.07;77.72;;;;;;;19.14;100.00;100542.69;5013718;28;20457;-85
2022/06/11 00:53:02;;;;;;;87.75;79.55;;;;;;;19.11;100.00;100541.34;5014128;28;20041;-85
2022/06/11 00:55:38;;;;;;;87.85;79.80;;;;;;;19.13;100.00;100549.16;5013588;28;20042;-85
2022/06/11 00:58:11;;;;;;;91.88;83.20;;;;;;;19.04;100.00;100548.88;5013700;28;20487;-85
2022/06/11 01:01:03;;;;;;;97.35;88.57;;;;;;;18.97;100.00;100549.13;5013424;28;20052;-84
2022/06/11 01:03:46;;;;;;;90.78;82.38;;;;;;;18.85;100.00;100555.81;4999576;28;20531;-85
2022/06/11 01:06:26;;;;;;;92.93;83.90;;;;;;;18.90;100.00;100545.06;5013903;28;20046;-84
2022/06/11 01:09:07;;;;;;;92.20;83.47;;;;;;;18.93;100.00;100548.03;5013358;28;20490;-84
2022/06/11 01:12:05;;;;;;;85.45;77.43;;;;;;;19.20;100.00;100549.69;5013703;28;20368;-85
2022/06/11 01:14:43;;;;;;;82.30;74.28;;;;;;;19.23;100.00;100549.97;5013341;28;20453;-83
2022/06/11 01:17:20;;;;;;;86.63;78.93;;;;;;;19.01;100.00;100552.09;5002601;28;20054;-82
2022/06/11 01:20:24;;;;;;;89.55;81.20;;;;;;;19.18;100.00;100555.38;5013487;28;20046;-83
2022/06/11 01:23:15;;;;;;;80.80;73.07;;;;;;;18.92;100.00;100561.75;5010320;28;20054;-83
2022/06/11 01:25:54;;;;;;;99.75;90.65;;;;;;;18.94;100.00;100556.91;5008602;28;20399;-83
2022/06/11 01:28:43;;;;;;;88.70;80.47;;;;;;;18.72;100.00;100565.16;5013480;28;20058;-83
2022/06/11 01:31:20;;;;;;;104.72;95.13;;;;;;;18.75;100.00;100567.34;4996015;28;20046;-82
2022/06/11 01:33:55;;;;;;;92.22;83.60;;;;;;;18.42;100.00;100557.75;5013228;28;20046;-83
2022/06/11 01:36:25;;;;;;;99.85;90.85;;;;;;;18.81;100.00;100573.56;5013240;28;20050;-83
2022/06/11 01:39:00;;;;;;;113.55;103.28;;;;;;;18.75;100.00;100578.91;5013261;28;20050;-83
2022/06/11 01:41:34;;;;;;;90.70;82.07;;;;;;;18.76;100.00;100579.75;4994479;28;20126;-83
2022/06/11 01:44:26;;;;;;;82.57;74.65;;;;;;;19.01;100.00;100581.69;5003725;28;20057;-82
2022/06/11 01:46:56;;;;;;;83.07;75.35;;;;;;;18.97;100.00;100586.81;5002935;28;20064;-83
2022/06/11 01:49:44;;;;;;;75.72;68.68;;;;;;;19.11;100.00;100589.78;5004257;28;20127;-82
2022/06/11 01:52:36;;;;;;;90.05;81.60;;;;;;;19.05;100.00;100587.34;5004867;28;20049;-83
2022/06/11 01:55:14;;;;;;;87.47;79.55;;;;;;;19.17;100.00;100593.31;5014058;28;20053;-83
2022/06/11 01:57:59;;;;;;;84.18;76.07;;;;;;;19.13;100.00;100594.91;5016879;28;20450;-82
2022/06/11 02:00:29;;;;;;;103.30;94.72;;;;;;;19.16;100.00;100597.88;5087386;23;20035;-92
2022/06/11 02:03:24;;;;;;;90.25;82.07;;;;;;;19.12;100.00;100591.41;5009641;28;20089;-93
2022/06/11 02:06:05;;;;;;;87.47;79.40;;;;;;;18.80;100.00;100590.78;5020078;28;20050;-90
2022/06/11 02:08:43;;;;;;;88.15;80.55;;;;;;;18.84;100.00;100594.56;5006258;28;20126;-91
2022/06/11 02:11:18;;;;;;;87.63;79.28;;;;;;;19.06;100.00;100592.44;5012811;28;20046;-93
2022/06/11 02:13:53;;;;;;;78.30;71.20;;;;;;;19.17;100.00;100594.09;5012137;28;20129;-93
2022/06/11 02:16:26;;;;;;;82.95;75.32;;;;;;;18.95;100.00;100594.31;5016963;28;20050;-92
2022/06/11 02:18:57;;;;;;;79.32;71.78;;;;;;;18.80;100.00;100598.84;5012192;28;20060;-94
2022/06/11 02:21:27;;;;;;;94.55;86.13;;;;;;;19.14;100.00;100593.84;5019848;28;20046;-94
2022/06/11 02:24:03;;;;;;;91.10;82.53;;;;;;;19.05;100.00;100598.13;5016700;28;20058;-93
2022/06/11 02:26:34;;;;;;;82.22;74.72;;;;;;;19.01;100.00;100597.84;5016176;28;20131;-93
2022/06/11 02:29:03;;;;;;;91.85;83.32;;;;;;;19.05;100.00;100598.13;5008172;28;20046;-93
2022/06/11 02:31:36;;;;;;;90.57;82.68;;;;;;;19.02;100.00;100598.66;5015755;28;20054;-93
2022/06/11 02:34:08;;;;;;;97.07;88.70;;;;;;;19.14;100.00;100601.91;5013974;28;20052;-93
2022/06/11 02:36:47;;;;;;;83.23;75.53;;;;;;;19.04;100.00;100604.59;5020719;28;20689;-93
2022/06/11 02:39:18;;;;;;;90.45;82.55;;;;;;;19.20;100.00;100601.66;5015962;28;21663;-92
2022/06/11 02:41:47;;;;;;;97.55;88.97;;;;;;;19.16;100.00;100600.56;5014220;28;20053;-93
2022/06/11 02:44:14;;;;;;;86.78;78.88;;;;;;;19.06;100.00;100603.22;5019743;28;20109;-94
2022/06/11 02:46:43;;;;;;;100.75;92.13;;;;;;;19.04;100.00;100602.69;5010720;28;20049;-93
2022/06/11 02:49:15;;;;;;;84.85;77.13;;;;;;;19.13;100.00;100611.06;5013554;28;20104;-92
2022/06/11 02:51:42;;;;;;;;;;;;;;;19.07;100.00;100612.13;5015084;28;20064;-93
2022/06/11 02:54:09;;;;;;;87.03;79.10;;;;;;;19.19;100.00;100608.13;5016456;28;19936;-92
2022/06/11 03:02:57;;;;;;;86.28;78.43;;;;;;;19.18;100.00;100611.06;5053509;23;20156;-85
2022/06/11 03:05:30;;;;;;;83.90;76.30;;;;;;;19.26;100.00;100612.44;5027794;28;20046;-86
2022/06/11 03:07:58;;;;;;;84.05;76.43;;;;;;;19.05;100.00;100617.75;5043336;28;20049;-85
2022/06/11 03:10:28;;;;;;;84.43;76.57;;;;;;;19.16;100.00;100616.72;5032031;28;20053;-85
2022/06/11 03:12:56;;;;;;;87.63;79.82;;;;;;;19.19;100.00;100621.56;5032480;28;20049;-85
2022/06/11 03:15:25;;;;;;;86.95;79.03;;;;;;;19.04;100.00;100620.72;5027618;28;20079;-86
2022/06/11 03:18:00;;;;;;;85.30;77.80;;;;;;;18.76;100.00;100609.34;5015548;28;20046;-86
2022/06/11 03:20:32;;;;;;;84.80;77.18;;;;;;;18.80;100.00;100612.31;5015140;28;20050;-86
2022/06/11 03:23:01;;;;;;;86.60;78.95;;;;;;;18.84;100.00;100619.56;5020558;28;20046;-86
2022/06/11 03:25:34;;;;;;;91.00;83.15;;;;;;;19.13;100.00;100611.88;5026163;28;20516;-84
2022/06/11 03:28:07;;;;;;;86.40;79.00;;;;;;;18.98;100.00;100611.84;5019129;28;20050;-85
2022/06/11 03:30:36;;;;;;;88.40;80.50;;;;;;;18.91;100.00;100611.25;5023904;28;20112;-85
2022/06/11 03:33:13;;;;;;;89.43;81.03;;;;;;;19.20;100.00;100608.91;5018509;28;20473;-85
2022/06/11 03:35:44;;;;;;;86.75;78.85;;;;;;;18.92;100.00;100611.00;5028557;28;20524;-85
2022/06/11 03:38:22;;;;;;;91.55;83.47;;;;;;;19.05;100.00;100606.19;5022711;28;20124;-86
2022/06/11 03:41:04;;;;;;;91.43;83.53;;;;;;;19.00;100.00;100609.66;5030162;28;20115;-86
2022/06/11 03:43:32;;;;;;;85.55;78.07;;;;;;;19.30;100.00;100608.13;5054325;28;20076;-86
2022/06/11 03:46:08;;;;;;;90.20;82.38;;;;;;;19.31;100.00;100604.38;5041359;28;20060;-86
2022/06/11 03:48:38;;;;;;;83.50;75.97;;;;;;;18.96;100.00;100609.38;5033954;28;20060;-84
2022/06/11 03:51:09;;;;;;;86.13;77.75;;;;;;;19.35;100.00;100608.16;5027290;28;20053;-86
2022/06/11 03:53:38;;;;;;;83.30;75.85;;;;;;;19.31;100.00;100613.25;5047246;28;20053;-84
2022/06/11 03:56:09;;;;;;;86.00;78.70;;;;;;;19.48;100.00;100615.69;5027610;28;20045;-84
2022/06/11 03:58:43;;;;;;;88.45;80.97;;;;;;;19.47;100.00;100611.41;5033611;28;20515;-86
2022/06/11 04:01:16;;;;;;;84.60;77.28;;;;;;;19.47;100.00;100614.09;5037887;28;20068;-84
2022/06/11 04:03:46;;;;;;;86.95;79.35;;;;;;;19.30;100.00;100611.63;5033220;28;20060;-85
2022/06/11 04:06:16;;;;;;;90.28;82.38;;;;;;;19.42;100.00;100620.25;5014541;28;20060;-84
2022/06/11 04:08:46;;;;;;;89.47;81.57;;;;;;;19.51;100.00;100625.94;5027227;28;20049;-84
2022/06/11 04:11:16;;;;;;;87.75;79.93;;;;;;;19.30;100.00;100635.06;5034485;28;20128;-83
2022/06/11 04:13:45;;;;;;;85.65;77.80;;;;;;;19.75;100.00;100633.53;5045051;28;20053;-85
2022/06/11 04:16:22;;;;;;;83.40;76.25;;;;;;;19.74;100.00;100630.03;5030725;28;20037;-83
2022/06/11 04:18:58;;;;;;;90.53;82.45;;;;;;;19.90;100.00;100636.22;5052218;28;20048;-85
2022/06/11 04:21:28;;;;;;;85.85;78.35;;;;;;;19.88;100.00;100641.09;5034332;28;20116;-87
2022/06/11 04:23:58;;;;;;;92.38;83.63;;;;;;;19.96;100.00;100645.94;5033482;28;20421;-83
2022/06/11 04:26:37;;;;;;;86.70;79.18;;;;;;;20.18;100.00;100652.94;5026253;28;20045;-85
2022/06/11 04:29:09;;;;;;;84.97;77.55;;;;;;;19.89;100.00;100661.56;5033488;28;20045;-84
2022/06/11 04:31:43;;;;;;;93.95;86.05;;;;;;;19.76;100.00;100657.53;5025388;28;20116;-85
2022/06/11 04:34:11;;;;;;;85.35;77.88;;;;;;;19.74;100.00;100667.75;5026736;28;20053;-86
2022/06/11 04:36:43;;;;;;;81.82;74.10;;;;;;;19.81;100.00;100662.91;5030380;28;20072;-86
2022/06/11 04:39:14;;;;;;;87.28;79.53;;;;;;;19.88;100.00;100671.56;5041323;28;20055;-85
2022/06/11 04:41:46;;;;;;;85.75;77.72;;;;;;;19.77;100.00;100661.84;5032825;28;20049;-85
2022/06/11 04:44:14;;;;;;;85.43;77.97;;;;;;;19.89;100.00;100672.34;5027924;28;20057;-85
2022/06/11 04:46:44;;;;;;;87.43;79.55;;;;;;;20.16;100.00;100664.00;5023363;28;20141;-85
2022/06/11 04:49:13;;;;;;;84.18;76.13;;;;;;;19.89;100.00;100662.38;5021802;28;20046;-84
2022/06/11 04:51:43;;;;;;;85.38;77.57;;;;;;;19.89;100.00;100662.38;5025383;28;20054;-84
2022/06/11 04:54:12;;;;;;;89.07;81.00;;;;;;;20.13;100.00;100672.63;5026697;28;20045;-85
2022/06/11 04:56:40;;;;;;;90.82;82.55;;;;;;;20.31;100.00;100668.56;5021712;28;20050;-84
2022/06/11 04:59:07;;;;;;;90.68;82.63;;;;;;;20.07;100.00;100677.22;4979344;28;20049;-86
2022/06/11 05:01:34;;;;;;;90.50;82.07;;;;;;;20.19;100.00;100681.53;5029179;28;20068;-84
2022/06/11 05:04:01;;;;;;;85.82;77.53;;;;;;;20.13;100.00;100675.31;5030629;28;20056;-85
2022/06/11 05:06:39;;;;;;;88.68;80.57;;;;;;;19.99;100.00;100668.84;5028375;28;20410;-85
2022/06/11 05:09:11;;;;;;;95.57;87.13;;;;;;;20.18;100.00;100672.59;5029051;28;20119;-85
2022/06/11 05:11:45;;;;;;;91.82;83.40;;;;;;;20.24;100.00;100678.81;5033609;28;20053;-84
2022/06/11 05:14:15;;;;;;;93.88;85.45;;;;;;;20.11;100.00;100675.59;5029065;28;20042;-85
2022/06/11 05:16:44;;;;;;;92.07;83.63;;;;;;;20.04;100.00;100671.56;5020395;28;20470;-86
2022/06/11 05:19:14;;;;;;;94.85;86.18;;;;;;;20.08;100.00;100672.63;5022770;28;20068;-84
2022/06/11 05:21:43;;;;;;;94.65;85.45;;;;;;;20.15;100.00;100665.06;5024838;28;20405;-85
2022/06/11 05:24:14;;;;;;;96.18;87.18;;;;;;;20.09;100.00;100675.06;5023193;28;20060;-85
2022/06/11 05:26:54;;;;;;;92.47;84.10;;;;;;;20.08;100.00;100668.03;5031958;28;20061;-85
2022/06/11 05:29:43;;;;;;;102.90;93.55;;;;;;;20.17;100.00;100668.31;5021820;28;20372;-86
2022/06/11 05:32:16;;;;;;;101.78;92.68;;;;;;;20.14;100.00;100674.22;5033103;28;20115;-85
2022/06/11 05:34:47;;;;;;;;;;;;;;;20.04;100.00;100675.06;5032260;28;20087;-86
2022/06/11 05:37:21;;;;;;;99.65;90.88;;;;;;;20.04;100.00;100677.75;5022392;28;19988;-84
2022/06/11 05:39:58;;;;;;;102.35;93.38;;;;;;;20.04;100.00;100685.03;5027499;28;20046;-84
2022/06/11 05:42:40;;;;;;;107.70;98.47;;;;;;;20.21;100.00;100687.44;5017198;28;20501;-85
2022/06/11 05:45:10;;;;;;;103.82;94.88;;;;;;;20.16;100.00;100680.19;5031778;28;20049;-84
2022/06/11 05:47:44;;;;;;;101.32;92.60;;;;;;;20.09;100.00;100687.72;5021609;28;20118;-84
2022/06/11 05:50:14;;;;;;;103.05;93.97;;;;;;;20.01;100.00;100689.06;5017598;28;20053;-85
2022/06/11 05:52:50;;;;;;;100.82;91.57;;;;;;;20.31;100.00;100692.84;5017143;28;20060;-86
2022/06/11 05:55:34;;;;;;;103.63;94.10;;;;;;;20.41;100.00;100684.72;5028253;28;20053;-86
2022/06/11 05:58:07;;;;;;;99.32;90.60;;;;;;;20.24;100.00;100693.13;5036763;28;20045;-85
2022/06/11 06:00:42;;;;;;;;;;;;;;;20.25;100.00;100696.63;5037035;28;20058;-86
2022/06/11 06:03:09;;;;;;;96.25;88.00;;;;;;;20.18;100.00;100693.38;5035342;28;19940;-85
2022/06/11 06:05:38;;;;;;;96.10;87.70;;;;;;;20.20;100.00;100702.81;5033645;28;20053;-86
2022/06/11 06:08:06;;;;;;;97.45;88.90;;;;;;;20.06;100.00;100701.72;5021412;28;20116;-85
2022/06/11 06:10:37;;;;;;;96.82;88.03;;;;;;;19.87;100.00;100704.94;5017958;28;20046;-86
2022/06/11 06:16:07;;;;;;;109.78;100.43;;;;;;;19.88;100.00;100711.97;5017219;28;20139;-86
2022/06/11 06:18:40;;;;;;;96.55;88.30;;;;;;;20.11;100.00;100713.31;5016813;28;20493;-86
2022/06/11 06:21:10;;;;;;;92.68;84.65;;;;;;;20.08;100.00;100707.66;5028445;28;20060;-85
2022/06/11 06:23:45;;;;;;;95.70;87.53;;;;;;;20.12;100.00;100708.75;5016577;28;20409;-86
2022/06/11 06:26:16;;;;;;;96.95;88.47;;;;;;;20.04;100.00;100725.47;5016171;28;20046;-86
2022/06/11 06:28:51;;;;;;;96.35;87.93;;;;;;;19.96;100.00;100726.78;5015620;28;20050;-87
2022/06/11 06:31:26;;;;;;;91.78;83.53;;;;;;;19.87;100.00;100728.41;5016665;28;20042;-86
2022/06/11 06:33:53;;;;;;;95.05;86.75;;;;;;;19.94;100.00;100733.53;5018963;28;20049;-84
2022/06/11 06:36:29;;;;;;;91.85;83.70;;;;;;;20.01;100.00;100736.78;5031037;28;20402;-85
2022/06/11 06:38:57;;;;;;;96.60;87.85;;;;;;;19.84;100.00;100747.81;5016565;28;20063;-85
2022/06/11 06:41:25;;;;;;;102.03;93.13;;;;;;;19.59;100.00;100749.34;5016566;28;20119;-85
2022/06/11 06:43:52;;;;;;;95.90;87.55;;;;;;;19.87;100.00;100747.28;5021862;28;20064;-86
2022/06/11 06:46:20;;;;;;;96.82;88.50;;;;;;;19.94;100.00;100763.19;5032129;28;20041;-85
2022/06/11 06:48:49;;;;;;;92.63;84.45;;;;;;;19.84;100.00;100763.97;5015984;28;20053;-85
2022/06/11 06:51:20;;;;;;;97.90;89.55;;;;;;;19.78;100.00;100768.53;5016443;28;20046;-86
2022/06/11 06:53:49;;;;;;;95.38;87.07;;;;;;;19.99;100.00;100768.59;5035956;28;20045;-85
2022/06/11 06:56:17;;;;;;;101.00;91.97;;;;;;;20.07;100.00;100776.16;5035713;28;20054;-85
2022/06/11 06:58:46;;;;;;;97.07;88.38;;;;;;;20.02;100.00;100770.75;5035679;28;20434;-85
2022/06/11 07:01:13;;;;;;;99.40;90.90;;;;;;;20.11;100.00;100772.63;5032624;28;20054;-84
2022/06/11 07:03:48;;;;;;;96.57;88.45;;;;;;;19.93;100.00;100775.84;5021274;28;20111;-84
2022/06/11 07:06:16;;;;;;;96.78;88.57;;;;;;;20.03;100.00;100778.59;5030362;28;20152;-84
2022/06/11 07:08:44;;;;;;;100.95;92.47;;;;;;;20.22;100.00;100775.38;5015829;28;20493;-84
2022/06/11 07:11:12;;;;;;;101.80;92.88;;;;;;;20.14;100.00;100785.59;5015777;28;20084;-86
2022/06/11 07:13:49;;;;;;;99.55;91.25;;;;;;;20.16;100.00;100795.31;5018456;28;20045;-86
2022/06/11 07:16:21;;;;;;;101.50;93.05;;;;;;;20.28;100.00;100787.78;5035550;28;20056;-85
2022/06/11 07:18:52;;;;;;;105.90;97.07;;;;;;;20.14;100.00;100792.88;5025798;28;20053;-84
2022/06/11 07:21:22;;;;;;;99.35;91.10;;;;;;;20.16;100.00;100788.03;5016559;28;20061;-84
2022/06/11 07:23:53;;;;;;;104.15;95.47;;;;;;;20.12;100.00;100795.84;5021327;28;20050;-84
2022/06/11 07:26:23;;;;;;;104.20;95.60;;;;;;;20.01;100.00;100799.59;5025340;28;20081;-86
2022/06/11 07:28:59;;;;;;;103.13;94.30;;;;;;;19.89;100.00;100804.41;5030357;28;20046;-85
2022/06/11 07:31:31;;;;;;;113.30;103.60;;;;;;;19.77;100.00;100795.75;5031461;28;20056;-86
2022/06/11 07:34:00;;;;;;;98.20;89.82;;;;;;;20.00;100.00;100814.16;5021559;28;20041;-85
2022/06/11 07:36:28;;;;;;;99.75;91.35;;;;;;;19.84;100.00;100815.19;5033514;28;20374;-85
2022/06/11 07:38:55;;;;;;;98.18;90.07;;;;;;;19.97;100.00;100811.16;5015407;28;20120;-84
2022/06/11 07:41:23;;;;;;;99.45;90.97;;;;;;;20.06;100.00;100812.25;5015160;28;20089;-85
2022/06/11 07:43:51;;;;;;;106.80;98.00;;;;;;;19.86;100.00;100808.44;5024120;28;20470;-86
2022/06/11 07:46:20;;;;;;;93.72;85.60;;;;;;;20.18;100.00;100807.44;5028178;28;20041;-84
2022/06/11 07:48:57;;;;;;;101.40;93.10;;;;;;;20.02;100.00;100800.41;5032774;28;20394;-85
2022/06/11 07:51:31;;;;;;;100.35;92.03;;;;;;;20.20;100.00;100813.38;5014880;28;20513;-84
2022/06/11 07:54:02;;;;;;;101.30;93.10;;;;;;;20.37;100.00;100815.81;5015335;28;20097;-86
2022/06/11 07:56:30;;;;;;;99.97;91.75;;;;;;;20.27;100.00;100813.94;5025466;28;20513;-84
2022/06/11 07:58:58;;;;;;;93.30;85.30;;;;;;;20.11;100.00;100810.38;5032392;28;20543;-84
2022/06/11 08:01:27;;;;;;;97.22;89.20;;;;;;;20.43;100.00;100819.34;5011041;28;20419;-85
2022/06/11 08:03:54;;;;;;;78.68;72.15;;;;;;;21.21;100.00;100802.78;4995258;28;20046;-85
2022/06/11 08:06:22;;;;;;;87.80;79.88;;;;;;;20.58;100.00;100813.97;5005183;28;20061;-84
2022/06/11 08:08:50;;;;;;;89.72;82.07;;;;;;;20.41;100.00;100813.41;4997937;28;20073;-85
2022/06/11 08:11:17;;;;;;;91.10;83.25;;;;;;;20.30;100.00;100808.00;5004611;28;20402;-83
2022/06/11 08:13:46;;;;;;;98.43;90.28;;;;;;;20.12;100.00;100808.50;5013252;28;20057;-84
2022/06/11 08:16:14;;;;;;;102.40;93.65;;;;;;;20.04;100.00;100806.34;5005678;28;20517;-84
2022/06/11 08:18:44;;;;;;;106.72;97.72;;;;;;;20.26;100.00;100811.50;4995123;28;20134;-84
2022/06/11 08:21:10;;;;;;;103.30;94.45;;;;;;;20.19;100.00;100802.88;5004326;28;20205;-85
2022/06/11 08:23:39;;;;;;;109.20;99.97;;;;;;;20.32;100.00;100805.84;5010299;28;20042;-85
2022/06/11 08:26:06;;;;;;;108.88;99.78;;;;;;;19.93;100.00;100802.81;5007071;28;20485;-85
2022/06/11 08:28:32;;;;;;;105.50;96.18;;;;;;;20.16;100.00;100803.41;4998299;28;20231;-85
2022/06/11 08:31:03;;;;;;;105.22;96.28;;;;;;;20.13;100.00;100808.25;5002374;28;20054;-84
2022/06/11 08:33:29;;;;;;;106.35;96.55;;;;;;;20.02;100.00;100797.69;5005226;28;20061;-83
2022/06/11 08:35:58;;;;;;;106.03;96.88;;;;;;;20.06;100.00;100796.09;5006181;28;20056;-84
2022/06/11 08:38:24;;;;;;;106.80;97.53;;;;;;;20.30;100.00;100804.47;5006785;28;20046;-85
2022/06/11 08:40:54;;;;;;;102.38;93.38;;;;;;;19.94;100.00;100793.66;5003972;28;20045;-82
2022/06/11 08:43:26;;;;;;;109.20;100.32;;;;;;;19.89;100.00;100794.44;4995324;28;20054;-83
2022/06/11 08:45:56;;;;;;;108.00;98.60;;;;;;;19.88;100.00;100792.84;5008951;28;20398;-83
2022/06/11 08:48:33;;;;;;;102.40;93.25;;;;;;;19.97;100.00;100795.81;5002679;28;20041;-84
2022/06/11 08:51:12;;;;;;;105.93;96.75;;;;;;;20.15;100.00;100797.19;5003092;28;20054;-84
2022/06/11 08:53:40;;;;;;;93.97;85.35;;;;;;;20.02;100.00;100793.13;5013534;28;20050;-85
2022/06/11 08:56:13;;;;;;;103.40;94.18;;;;;;;20.29;100.00;100797.47;5002581;28;20060;-84
2022/06/11 08:59:05;;;;;;;105.10;95.93;;;;;;;20.24;100.00;100803.69;5012710;28;20049;-84
2022/06/11 09:01:47;;;;;;;107.77;98.33;;;;;;;20.35;100.00;100794.50;5005291;28;20046;-85
2022/06/11 09:04:27;;;;;;;110.03;100.28;;;;;;;20.47;100.00;100798.84;5028444;28;20050;-85
2022/06/11 09:07:14;;;;;;;112.82;102.72;;;;;;;20.64;100.00;100796.72;5019709;28;20054;-85
2022/06/11 09:09:55;;;;;;;117.60;107.07;;;;;;;20.66;100.00;100804.50;5023077;28;20054;-84
2022/06/11 09:12:47;;;;;;;118.43;108.18;;;;;;;20.66;100.00;100797.22;5024890;28;20050;-84
2022/06/11 09:15:22;;;;;;;116.72;106.72;;;;;;;20.59;100.00;100799.41;5020539;28;20115;-84
2022/06/11 09:18:18;;;;;;;122.93;112.03;;;;;;;20.84;100.00;100795.06;5024797;28;20053;-85
2022/06/11 09:20:57;;;;;;;106.55;97.20;;;;;;;20.55;100.00;100788.34;5019349;28;20071;-86
2022/06/11 09:23:59;;;;;;;112.50;102.45;;;;;;;20.71;100.00;100791.84;5021765;28;20076;-85
2022/06/11 09:26:42;;;;;;;114.78;104.78;;;;;;;20.83;100.00;100793.44;5017652;28;20068;-85
2022/06/11 09:29:14;;;;;;;112.88;102.97;;;;;;;20.46;100.00;100794.53;4990053;28;20058;-85
2022/06/11 09:31:47;;;;;;;113.65;103.90;;;;;;;20.62;100.00;100792.66;5008980;28;20056;-84
2022/06/11 09:34:19;;;;;;;101.40;92.18;;;;;;;20.49;100.00;100791.28;5002950;28;20037;-85
2022/06/11 09:36:55;;;;;;;107.00;97.00;;;;;;;20.86;100.00;100795.59;5003013;28;20454;-84
2022/06/11 09:39:39;;;;;;;106.53;96.93;;;;;;;20.77;100.00;100796.16;5008043;28;20054;-84
2022/06/11 09:42:31;;;;;;;107.50;97.88;;;;;;;20.70;100.00;100792.91;5003098;28;20058;-84
2022/06/11 09:45:06;;;;;;;105.10;95.53;;;;;;;20.69;100.00;100785.88;5002786;28;20052;-85
2022/06/11 09:47:44;;;;;;;107.93;98.40;;;;;;;20.89;100.00;100786.97;5007831;28;20515;-85
2022/06/11 09:50:22;;;;;;;101.13;92.43;;;;;;;20.88;100.00;100790.72;4997415;28;20053;-84
2022/06/11 09:53:00;;;;;;;104.75;95.32;;;;;;;20.87;100.00;100781.00;5005532;28;20466;-85
2022/06/11 09:55:47;;;;;;;98.05;89.25;;;;;;;20.84;100.00;100785.06;5007672;28;20046;-85
2022/06/11 09:58:27;;;;;;;103.10;93.10;;;;;;;20.90;100.00;100785.88;4999620;28;20046;-84
2022/06/11 10:00:58;;;;;;;104.15;94.43;;;;;;;20.98;100.00;100779.91;5003187;28;20054;-84
2022/06/11 10:03:37;;;;;;;103.43;94.00;;;;;;;20.91;100.00;100782.91;4900197;28;10001352;-85
2022/06/11 10:06:15;;;;;;;105.50;95.97;;;;;;;20.95;100.00;100786.66;5003122;28;20259;-83
2022/06/11 10:08:47;;;;;;;110.82;100.80;;;;;;;21.03;100.00;100785.31;5001099;28;20068;-85
2022/06/11 10:11:20;;;;;;;106.93;97.05;;;;;;;21.03;100.00;100779.91;5006322;28;20050;-82
2022/06/11 10:14:28;;;;;;;116.03;105.35;;;;;;;20.91;100.00;100784.78;5007747;28;20050;-84
2022/06/11 10:16:53;;;;;;;112.90;102.32;;;;;;;21.07;100.00;100782.88;5002449;28;20053;-84
2022/06/11 10:19:27;;;;;;;115.90;105.68;;;;;;;21.03;100.00;100778.03;5002152;28;20043;-83
2022/06/11 10:22:01;;;;;;;119.50;108.53;;;;;;;21.09;100.00;100772.59;5005058;28;20478;-84
2022/06/11 10:24:32;;;;;;;115.57;105.43;;;;;;;21.03;100.00;100774.50;4998655;28;20057;-84
2022/06/11 10:27:04;;;;;;;106.57;97.22;;;;;;;21.07;100.00;100774.78;5001751;28;20042;-83
2022/06/11 10:29:36;;;;;;;;;;;;;;;21.22;100.00;100766.63;4998843;28;20072;-83
2022/06/11 10:32:11;;;;;;;103.22;94.07;;;;;;;21.08;100.00;100768.28;5001594;28;21496;-84
2022/06/11 10:34:43;;;;;;;117.28;107.18;;;;;;;21.20;100.00;100776.88;5000514;28;20062;-86
2022/06/11 10:37:16;;;;;;;112.80;103.28;;;;;;;21.32;100.00;100771.97;5004005;28;20057;-84
2022/06/11 10:39:51;;;;;;;120.32;109.72;;;;;;;21.21;100.00;100773.09;5010718;28;20499;-82
2022/06/11 10:42:35;;;;;;;109.82;100.30;;;;;;;21.13;100.00;100770.97;5005375;28;20046;-84
2022/06/11 10:45:04;;;;;;;107.60;98.43;;;;;;;20.91;100.00;100771.28;5002759;28;20046;-85
2022/06/11 10:47:36;;;;;;;119.63;109.32;;;;;;;20.99;100.00;100760.72;5009307;28;20049;-84
2022/06/11 10:50:18;;;;;;;124.75;114.18;;;;;;;21.05;100.00;100759.63;5004830;28;20038;-85
2022/06/11 10:52:52;;;;;;;126.07;115.50;;;;;;;21.34;100.00;100755.50;5001861;28;20054;-84
2022/06/11 10:55:28;;;;;;;121.03;110.88;;;;;;;21.22;100.00;100755.81;4995161;28;20394;-84
2022/06/11 10:58:02;;;;;;;116.68;106.80;;;;;;;21.33;100.00;100754.69;5005257;28;20051;-83
2022/06/11 11:00:39;;;;;;;112.45;102.78;;;;;;;21.47;100.00;100753.03;5004808;28;20045;-85
2022/06/11 11:03:15;;;;;;;115.38;105.85;;;;;;;21.30;100.00;100744.41;5002636;28;20076;-84
2022/06/11 11:05:49;;;;;;;116.10;106.00;;;;;;;21.63;100.00;100740.22;5001800;28;20045;-84
2022/06/11 11:08:17;;;;;;;122.97;112.78;;;;;;;21.56;100.00;100738.94;5000308;28;20046;-83
2022/06/11 11:10:48;;;;;;;109.55;100.35;;;;;;;21.62;100.00;100730.53;5000166;28;20053;-84
2022/06/11 11:13:21;;;;;;;109.78;100.60;;;;;;;21.41;100.00;100724.41;5007587;28;20041;-84
2022/06/11 11:15:57;;;;;;;115.05;105.35;;;;;;;21.72;100.00;100732.34;5008773;28;20124;-84
2022/06/11 11:18:26;;;;;;;115.43;105.72;;;;;;;21.65;100.00;100729.16;5011447;28;20042;-83
2022/06/11 11:21:22;;;;;;;118.78;108.32;;;;;;;21.86;100.00;100730.63;4998248;28;20046;-83
2022/06/11 11:24:02;;;;;;;115.57;105.50;;;;;;;21.84;100.00;100727.41;5002818;28;20109;-84
2022/06/11 11:26:36;;;;;;;119.03;108.63;;;;;;;21.99;100.00;100740.00;5012138;28;20096;-84
2022/06/11 11:29:08;;;;;;;114.93;104.93;;;;;;;21.84;100.00;100737.41;5000755;28;20057;-84
2022/06/11 11:31:47;;;;;;;115.15;105.25;;;;;;;21.95;100.00;100728.16;4999632;28;20074;-85
2022/06/11 11:34:17;;;;;;;107.10;97.60;;;;;;;21.66;100.00;100728.06;4999305;28;20046;-83
2022/06/11 11:36:57;;;;;;;106.90;97.63;;;;;;;21.59;100.00;100727.56;5001292;28;20053;-85
2022/06/11 11:39:30;;;;;;;112.72;103.13;;;;;;;21.77;100.00;100728.81;5005343;28;20105;-83